Time;durP1;ratioP1;P1;durP2;ratioP2;P2;SDS_P1;SDS_P2;PMS_P1;PMS_P2;Temp;Humidity;BMP_temperature;BMP_pressure;BME280_temperature;BME280_humidity;BME280_pressure;Samples;Min_cycle;Max_cycle;Signal;HPM_P1;HPM_P2
2023/01/09 00:02:05;;;;;;;;;;;7.40;99.90;;;;;;5036795;28;19936;-84
2023/01/09 00:04:31;;;;;;;;;;;7.40;99.90;;;;;;5034312;28;19983;-84
2023/01/09 00:06:56;;;;;;;;;;;7.40;99.90;;;;;;5034558;28;20210;-85
2023/01/09 00:09:22;;;;;;;;;;;7.40;99.90;;;;;;5017601;28;20162;-87
2023/01/09 00:11:48;;;;;;;;;;;7.40;99.90;;;;;;5019243;28;20026;-86
2023/01/09 00:14:15;;;;;;;;;;;7.40;99.90;;;;;;5025168;28;20038;-86
2023/01/09 00:16:40;;;;;;;;;;;7.30;99.90;;;;;;5018553;28;20367;-86
2023/01/09 00:19:06;;;;;;;;;;;7.40;99.90;;;;;;5018714;28;19951;-86
2023/01/09 00:21:32;;;;;;;;;;;7.30;99.90;;;;;;5033793;28;19929;-87
2023/01/09 00:23:57;;;;;;;;;;;7.30;99.90;;;;;;5035878;28;19940;-87
2023/01/09 00:26:23;;;;;;;;;;;7.30;99.90;;;;;;5040434;28;19956;-87
2023/01/09 00:28:49;;;;;;;;;;;7.20;99.90;;;;;;5039018;28;19933;-87
2023/01/09 00:31:15;;;;;;;;;;;7.20;99.90;;;;;;5038103;28;19929;-87
2023/01/09 00:33:42;;;;;;;;;;;7.10;99.90;;;;;;5019459;28;20272;-86
2023/01/09 00:36:08;;;;;;;;;;;7.10;99.90;;;;;;5019301;28;19925;-87
2023/01/09 00:38:36;;;;;;;;;;;7.00;99.90;;;;;;5018531;28;20042;-87
2023/01/09 00:41:03;;;;;;;;;;;7.10;99.90;;;;;;5016603;28;19956;-86
2023/01/09 00:43:31;;;;;;;;;;;7.00;99.90;;;;;;5020914;28;20016;-86
2023/01/09 00:45:57;;;;;;;;;;;6.90;99.90;;;;;;4999519;28;19932;-85
2023/01/09 00:48:25;;;;;;;;;;;6.90;99.90;;;;;;5019231;28;19929;-84
2023/01/09 00:50:56;;;;;;;;;;;6.90;99.90;;;;;;5016002;28;19925;-83
2023/01/09 00:53:24;;;;;;;;;;;6.90;99.90;;;;;;5018444;28;19948;-83
2023/01/09 00:55:50;;;;;;;;;;;6.80;99.90;;;;;;5033358;28;19951;-83
2023/01/09 00:58:16;;;;;;;;;;;6.80;99.90;;;;;;5032885;28;19960;-83
2023/01/09 01:00:42;;;;;;;;;;;6.70;99.90;;;;;;5031161;28;19964;-83
2023/01/09 01:03:07;;;;;;;;;;;6.80;99.90;;;;;;5013553;28;20267;-83
2023/01/09 01:08:18;;;;;;;;;;;6.70;99.90;;;;;;5018591;28;19929;-83
2023/01/09 01:10:44;;;;;;;;;;;6.70;99.90;;;;;;5030858;28;19929;-83
2023/01/09 01:13:10;;;;;;;;;;;6.70;99.90;;;;;;5034588;28;19933;-83
2023/01/09 01:15:39;;;;;;;;;;;6.70;99.90;;;;;;5011605;28;20024;-83
2023/01/09 01:18:05;;;;;;;;;;;6.70;99.90;;;;;;5020198;28;19929;-83
2023/01/09 01:20:31;;;;;;;;;;;6.70;99.90;;;;;;5035384;28;20011;-83
2023/01/09 01:22:56;;;;;;;;;;;6.70;99.90;;;;;;5006078;28;20007;-83
2023/01/09 01:25:22;;;;;;;;;;;6.80;99.90;;;;;;5036121;28;19940;-83
2023/01/09 01:27:47;;;;;;;;;;;6.70;99.90;;;;;;5037809;28;20448;-83
2023/01/09 01:30:14;;;;;;;;;;;6.80;99.90;;;;;;5033666;28;19933;-83
2023/01/09 01:32:39;;;;;;;;;;;6.80;99.90;;;;;;5020252;28;19948;-83
2023/01/09 01:35:05;;;;;;;;;;;6.80;99.90;;;;;;5021169;28;19925;-83
2023/01/09 01:37:32;;;;;;;;;;;6.80;99.90;;;;;;5002717;28;19929;-83
2023/01/09 01:39:58;;;;;;;;;;;6.80;99.90;;;;;;5021858;28;19936;-82
2023/01/09 01:42:23;;;;;;;;;;;6.70;99.90;;;;;;5017715;28;19930;-83
2023/01/09 01:44:55;;;;;;;;;;;6.70;99.90;;;;;;5034624;28;19925;-83
2023/01/09 01:47:21;;;;;;;;;;;6.70;99.90;;;;;;5038246;28;19925;-83
2023/01/09 01:49:47;;;;;;;;;;;6.70;99.90;;;;;;5026660;28;19929;-83
2023/01/09 01:52:13;;;;;;;;;;;6.70;99.90;;;;;;5007389;28;19948;-83
2023/01/09 01:54:39;;;;;;;;;;;6.70;99.90;;;;;;5035344;28;19996;-83
2023/01/09 01:57:04;;;;;;;;;;;6.70;99.90;;;;;;5003536;28;19929;-83
2023/01/09 01:59:30;;;;;;;;;;;6.70;99.90;;;;;;5034870;28;19929;-83
2023/01/09 02:01:58;;;;;;;;;;;6.70;99.90;;;;;;5039210;28;19958;-83
2023/01/09 02:04:23;;;;;;;;;;;6.70;99.90;;;;;;4999645;28;19975;-83
2023/01/09 02:06:50;;;;;;;;;;;6.70;99.90;;;;;;5035580;28;19929;-83
2023/01/09 02:09:18;;;;;;;;;;;6.60;99.90;;;;;;5039090;28;20449;-83
2023/01/09 02:11:45;;;;;;;;;;;6.60;99.90;;;;;;5016455;28;19981;-83
2023/01/09 02:14:10;;;;;;;;;;;6.60;99.90;;;;;;5018846;28;20015;-83
2023/01/09 02:16:36;;;;;;;;;;;6.50;99.90;;;;;;5002050;28;20013;-83
2023/01/09 02:19:20;;;;;;;;;;;6.50;99.90;;;;;;5017197;28;19932;-82
2023/01/09 02:21:56;;;;;;;;;;;6.40;99.90;;;;;;5016948;28;19929;-83
2023/01/09 02:24:24;;;;;;;;;;;6.40;99.90;;;;;;5019614;28;20063;-82
2023/01/09 02:27:09;;;;;;;;;;;6.30;99.90;;;;;;5020084;28;19929;-82
2023/01/09 02:29:53;;;;;;;;;;;6.30;99.90;;;;;;5036649;28;19936;-82
2023/01/09 02:32:27;;;;;;;;;;;6.20;99.90;;;;;;5036015;28;20090;-83
2023/01/09 02:35:16;;;;;;;;;;;6.20;99.90;;;;;;5017459;28;19925;-82
2023/01/09 02:37:56;;;;;;;;;;;6.10;99.90;;;;;;5034457;28;19936;-83
2023/01/09 02:40:31;;;;;;;;;;;6.00;99.90;;;;;;5037643;28;19932;-83
2023/01/09 02:42:58;;;;;;;;;;;6.00;99.90;;;;;;5023442;28;19925;-83
2023/01/09 02:45:23;;;;;;;;;;;5.90;99.90;;;;;;5013079;28;19964;-83
2023/01/09 02:47:49;;;;;;;;;;;5.90;99.90;;;;;;4998691;28;19952;-83
2023/01/09 02:50:38;;;;;;;;;;;5.80;99.90;;;;;;5017452;28;20016;-83
2023/01/09 02:53:22;;;;;;;;;;;5.80;99.90;;;;;;5013743;28;19972;-83
2023/01/09 02:55:54;;;;;;;;;;;5.70;99.90;;;;;;5037284;28;20126;-83
2023/01/09 02:58:25;;;;;;;;;;;5.70;99.90;;;;;;5015424;28;19933;-84
2023/01/09 03:00:57;;;;;;;;;;;5.60;99.90;;;;;;5021338;28;19991;-82
2023/01/09 03:03:26;;;;;;;;;;;5.60;99.90;;;;;;5032002;28;19925;-83
2023/01/09 03:05:56;;;;;;;;;;;5.60;99.90;;;;;;5036798;28;19926;-83
2023/01/09 03:08:33;;;;;;;;;;;5.60;99.90;;;;;;5017705;28;19933;-82
2023/01/09 03:10:59;;;;;;;;;;;5.60;99.90;;;;;;5018074;28;19975;-83
2023/01/09 03:13:27;;;;;;;;;;;5.50;99.90;;;;;;5035284;28;19964;-82
2023/01/09 03:15:54;;;;;;;;;;;5.50;99.90;;;;;;5001250;28;19925;-83
2023/01/09 03:18:23;;;;;;;;;;;5.50;99.90;;;;;;5014297;28;19939;-83
2023/01/09 03:20:49;;;;;;;;;;;5.40;99.90;;;;;;5018628;28;20391;-83
2023/01/09 03:23:15;;;;;;;;;;;5.40;99.90;;;;;;5016710;28;19947;-83
2023/01/09 03:25:40;;;;;;;;;;;5.40;99.90;;;;;;5033444;28;19933;-83
2023/01/09 03:28:07;;;;;;;;;;;5.40;99.90;;;;;;5016683;28;19925;-83
2023/01/09 03:30:34;;;;;;;;;;;5.30;99.90;;;;;;5015740;28;19929;-83
2023/01/09 03:33:00;;;;;;;;;;;5.30;99.90;;;;;;5002067;28;19936;-83
2023/01/09 03:35:25;;;;;;;;;;;5.30;99.90;;;;;;5034333;28;19933;-83
2023/01/09 03:37:51;;;;;;;;;;;5.20;99.90;;;;;;5034861;28;19929;-82
2023/01/09 03:40:17;;;;;;;;;;;5.20;99.90;;;;;;5017627;28;20273;-82
2023/01/09 03:42:43;;;;;;;;;;;5.20;99.90;;;;;;5017098;28;19989;-83
2023/01/09 03:45:08;;;;;;;;;;;5.20;99.90;;;;;;5015167;28;19980;-82
2023/01/09 03:47:34;;;;;;;;;;;5.20;99.90;;;;;;5018977;28;19926;-82
2023/01/09 03:50:00;;;;;;;;;;;5.10;99.90;;;;;;5034815;28;19925;-83
2023/01/09 03:52:25;;;;;;;;;;;5.10;99.90;;;;;;5027652;28;19957;-81
2023/01/09 03:54:51;;;;;;;;;;;5.10;99.90;;;;;;5014305;28;19925;-83
2023/01/09 03:57:16;;;;;;;;;;;5.10;99.90;;;;;;5036345;28;19929;-83
2023/01/09 03:59:42;;;;;;;;;;;5.10;99.90;;;;;;5022293;28;20394;-83
2023/01/09 04:02:07;;;;;;;;;;;5.10;99.90;;;;;;5034213;28;19944;-83
2023/01/09 04:04:33;;;;;;;;;;;5.10;99.90;;;;;;5019038;28;19984;-83
2023/01/09 04:06:59;;;;;;;;;;;5.10;99.90;;;;;;5014684;28;19933;-83
2023/01/09 04:09:24;;;;;;;;;;;5.10;99.90;;;;;;5001111;28;20028;-83
2023/01/09 04:11:50;;;;;;;;;;;5.10;99.90;;;;;;5016556;28;19930;-83
2023/01/09 04:14:15;;;;;;;;;;;5.10;99.90;;;;;;5033557;28;19925;-83
2023/01/09 04:16:41;;;;;;;;;;;5.00;99.90;;;;;;5034117;28;19979;-83
2023/01/09 04:19:06;;;;;;;;;;;5.00;99.90;;;;;;5017382;28;19929;-83
2023/01/09 04:21:32;;;;;;;;;;;4.90;99.90;;;;;;5033315;28;19936;-83
2023/01/09 04:23:58;;;;;;;;;;;5.00;99.90;;;;;;4999908;28;19932;-82
2023/01/09 04:26:23;;;;;;;;;;;5.00;99.90;;;;;;5002169;28;19929;-83
2023/01/09 04:28:49;;;;;;;;;;;5.00;99.90;;;;;;5001573;28;19925;-82
2023/01/09 04:31:14;;;;;;;;;;;5.10;99.90;;;;;;5019575;28;19929;-83
2023/01/09 04:33:40;;;;;;;;;;;5.10;99.90;;;;;;5034424;28;20055;-83
2023/01/09 04:36:06;;;;;;;;;;;5.00;99.90;;;;;;5018744;28;19929;-83
2023/01/09 04:38:31;;;;;;;;;;;5.00;99.90;;;;;;5034689;28;19925;-83
2023/01/09 04:40:57;;;;;;;;;;;5.00;99.90;;;;;;5017241;28;19979;-83
2023/01/09 04:43:23;;;;;;;;;;;5.00;99.90;;;;;;5032116;28;20111;-83
2023/01/09 04:45:48;;;;;;;;;;;5.00;99.90;;;;;;5016884;28;19929;-83
2023/01/09 04:48:14;;;;;;;;;;;4.90;99.90;;;;;;5018256;28;20012;-83
2023/01/09 04:50:40;;;;;;;;;;;5.00;99.90;;;;;;5028276;28;20502;-83
2023/01/09 04:53:05;;;;;;;;;;;4.90;99.90;;;;;;5020359;28;19961;-83
2023/01/09 04:55:31;;;;;;;;;;;4.90;99.90;;;;;;5021270;28;19975;-83
2023/01/09 04:57:57;;;;;;;;;;;4.90;99.90;;;;;;5041390;28;19925;-84
2023/01/09 05:00:23;;;;;;;;;;;4.90;99.90;;;;;;5038923;28;19925;-83
2023/01/09 05:02:48;;;;;;;;;;;4.90;99.90;;;;;;5023442;28;20007;-82
2023/01/09 05:05:14;;;;;;;;;;;4.80;99.90;;;;;;5022052;28;20004;-82
2023/01/09 05:07:39;;;;;;;;;;;4.80;99.90;;;;;;5037560;28;19936;-83
2023/01/09 05:10:05;;;;;;;;;;;4.80;99.90;;;;;;5037202;28;19988;-83
2023/01/09 05:12:31;;;;;;;;;;;4.80;99.90;;;;;;5037273;28;20382;-82
2023/01/09 05:14:57;;;;;;;;;;;4.80;99.90;;;;;;5036215;28;19959;-82
2023/01/09 05:17:23;;;;;;;;;;;4.80;99.90;;;;;;5005672;28;19925;-83
2023/01/09 05:19:48;;;;;;;;;;;4.80;99.90;;;;;;5019620;28;19925;-83
2023/01/09 05:22:14;;;;;;;;;;;4.70;99.90;;;;;;5025412;28;19941;-83
2023/01/09 05:24:39;;;;;;;;;;;4.80;99.90;;;;;;5019727;28;20352;-83
2023/01/09 05:27:05;;;;;;;;;;;4.80;99.90;;;;;;5020629;28;20410;-83
2023/01/09 05:29:31;;;;;;;;;;;4.80;99.90;;;;;;5018219;28;19929;-87
2023/01/09 05:31:56;;;;;;;;;;;4.80;99.90;;;;;;5005109;28;19948;-88
2023/01/09 05:34:22;;;;;;;;;;;4.80;99.90;;;;;;5036658;28;19929;-87
2023/01/09 05:36:48;;;;;;;;;;;4.80;99.90;;;;;;5011132;28;19925;-87
2023/01/09 05:39:13;;;;;;;;;;;4.80;99.90;;;;;;5035333;28;19965;-88
2023/01/09 05:41:39;;;;;;;;;;;4.80;99.90;;;;;;5037831;28;19929;-87
2023/01/09 05:44:05;;;;;;;;;;;4.80;99.90;;;;;;5037674;28;19925;-87
2023/01/09 05:46:31;;;;;;;;;;;4.90;99.90;;;;;;5021852;28;20043;-87
2023/01/09 05:48:56;;;;;;;;;;;5.00;99.90;;;;;;5021682;28;19933;-88
2023/01/09 05:51:22;;;;;;;;;;;5.00;99.90;;;;;;5033010;28;19987;-88
2023/01/09 05:53:47;;;;;;;;;;;5.10;99.90;;;;;;5035195;28;19940;-88
2023/01/09 05:56:13;;;;;;;;;;;5.10;99.90;;;;;;5019212;28;20464;-89
2023/01/09 05:58:39;;;;;;;;;;;5.20;99.90;;;;;;5018289;28;19980;-89
2023/01/09 06:01:05;;;;;;;;;;;5.30;99.90;;;;;;5025584;28;19968;-88
2023/01/09 06:03:30;;;;;;;;;;;5.20;99.90;;;;;;5038147;28;19975;-89
2023/01/09 06:05:56;;;;;;;;;;;5.30;99.90;;;;;;5022904;28;19925;-89
2023/01/09 06:08:21;;;;;;;;;;;5.30;99.90;;;;;;5040044;28;19983;-88
2023/01/09 06:10:47;;;;;;;;;;;5.30;99.90;;;;;;5039010;28;19925;-87
2023/01/09 06:13:13;;;;;;;;;;;5.30;99.90;;;;;;5035743;28;19987;-91
2023/01/09 06:15:38;;;;;;;;;;;5.40;99.90;;;;;;5019344;28;19933;-89
2023/01/09 06:18:04;;;;;;;;;;;5.40;99.90;;;;;;5037805;28;19939;-89
2023/01/09 06:20:30;;;;;;;;;;;5.40;99.90;;;;;;5037800;28;19959;-89
2023/01/09 06:22:55;;;;;;;;;;;5.40;99.90;;;;;;5036568;28;19993;-88
2023/01/09 06:25:21;;;;;;;;;;;5.40;99.90;;;;;;5003069;28;19933;-88
2023/01/09 06:27:47;;;;;;;;;;;5.40;99.90;;;;;;5018709;28;19929;-89
2023/01/09 06:30:13;;;;;;;;;;;5.30;99.90;;;;;;5038330;28;20442;-88
2023/01/09 06:32:38;;;;;;;;;;;5.30;99.90;;;;;;4988632;28;19929;-88
2023/01/09 06:35:04;;;;;;;;;;;5.20;99.90;;;;;;5022155;28;19925;-88
2023/01/09 06:37:30;;;;;;;;;;;5.10;99.90;;;;;;5019047;28;19939;-89
2023/01/09 06:39:55;;;;;;;;;;;5.10;99.90;;;;;;5001992;28;19981;-84
2023/01/09 06:42:21;;;;;;;;;;;5.10;99.90;;;;;;5034630;28;19929;-84
2023/01/09 06:44:46;;;;;;;;;;;5.10;99.90;;;;;;5016618;28;19929;-84
2023/01/09 06:47:12;;;;;;;;;;;5.10;99.90;;;;;;5019557;28;20515;-84
2023/01/09 06:49:37;;;;;;;;;;;5.10;99.90;;;;;;5028501;28;19972;-83
2023/01/09 06:52:06;;;;;;;;;;;5.10;99.90;;;;;;5036324;28;19975;-84
2023/01/09 06:54:32;;;;;;;;;;;5.10;99.90;;;;;;5036934;28;19980;-84
2023/01/09 06:56:57;;;;;;;;;;;5.10;99.90;;;;;;5033730;28;19929;-84
2023/01/09 06:59:23;;;;;;;;;;;5.10;99.90;;;;;;5022604;28;19936;-84
2023/01/09 07:01:49;;;;;;;;;;;5.20;99.90;;;;;;5016909;28;19925;-84
2023/01/09 07:04:16;;;;;;;;;;;5.20;99.90;;;;;;5020253;28;20320;-83
2023/01/09 07:06:42;;;;;;;;;;;5.20;99.90;;;;;;4984318;28;19936;-84
2023/01/09 07:09:12;;;;;;;;;;;5.20;99.90;;;;;;5018676;28;19925;-84
2023/01/09 07:11:38;;;;;;;;;;;5.10;99.90;;;;;;5009947;28;19925;-84
2023/01/09 07:14:03;;;;;;;;;;;5.10;99.90;;;;;;5006269;28;19925;-83
2023/01/09 07:16:29;;;;;;;;;;;5.10;99.90;;;;;;5025495;28;19929;-83
2023/01/09 07:18:54;;;;;;;;;;;5.20;99.90;;;;;;5002780;28;19984;-84
2023/01/09 07:21:20;;;;;;;;;;;5.20;99.90;;;;;;5003986;28;20413;-83
2023/01/09 07:23:46;;;;;;;;;;;5.20;99.90;;;;;;5023412;28;19930;-84
2023/01/09 07:26:11;;;;;;;;;;;5.20;99.90;;;;;;5004937;28;19972;-83
2023/01/09 07:28:37;;;;;;;;;;;5.20;99.90;;;;;;5002957;28;19933;-84
2023/01/09 07:31:03;;;;;;;;;;;5.20;99.90;;;;;;5031814;28;19972;-83
2023/01/09 07:33:29;;;;;;;;;;;5.20;99.90;;;;;;5009460;28;20006;-84
2023/01/09 07:35:55;;;;;;;;;;;5.20;99.90;;;;;;5023645;28;20279;-84
2023/01/09 07:38:20;;;;;;;;;;;5.30;99.90;;;;;;5016977;28;19988;-84
2023/01/09 07:40:46;;;;;;;;;;;5.30;99.90;;;;;;5021553;28;19933;-84
2023/01/09 07:43:11;;;;;;;;;;;5.30;99.90;;;;;;5028035;28;19926;-83
2023/01/09 07:45:37;;;;;;;;;;;5.40;99.90;;;;;;5002824;28;19933;-84
2023/01/09 07:48:03;;;;;;;;;;;5.40;99.90;;;;;;5016524;28;19932;-84
2023/01/09 07:50:28;;;;;;;;;;;5.30;99.90;;;;;;5020777;28;20446;-84
2023/01/09 07:52:54;;;;;;;;;;;5.40;99.90;;;;;;5006286;28;19929;-84
2023/01/09 07:55:19;;;;;;;;;;;5.40;99.90;;;;;;5006427;28;20427;-84
2023/01/09 07:57:49;;;;;;;;;;;5.50;99.90;;;;;;5024992;28;19933;-84
2023/01/09 08:00:14;;;;;;;;;;;5.50;99.90;;;;;;5017850;28;19933;-84
2023/01/09 08:02:40;;;;;;;;;;;5.50;99.90;;;;;;5023159;28;19942;-84
2023/01/09 08:05:07;;;;;;;;;;;5.50;99.90;;;;;;5008665;28;19983;-85
2023/01/09 08:07:33;;;;;;;;;;;5.50;99.90;;;;;;4998294;28;20439;-86
2023/01/09 08:09:59;;;;;;;;;;;5.50;99.90;;;;;;5022431;28;19976;-86
2023/01/09 08:12:24;;;;;;;;;;;5.50;99.90;;;;;;4999462;28;19925;-85
2023/01/09 08:14:50;;;;;;;;;;;5.50;99.90;;;;;;5002145;28;20020;-86
2023/01/09 08:17:16;;;;;;;;;;;5.50;99.90;;;;;;5010046;28;19936;-85
2023/01/09 08:19:42;;;;;;;;;;;5.50;99.90;;;;;;5003249;28;19925;-85
2023/01/09 08:22:08;;;;;;;;;;;5.50;99.90;;;;;;5025393;28;19925;-85
2023/01/09 08:24:35;;;;;;;;;;;5.50;99.90;;;;;;5022235;28;19929;-85
2023/01/09 08:27:01;;;;;;;;;;;5.60;99.90;;;;;;5016880;28;19934;-86
2023/01/09 08:29:27;;;;;;;;;;;5.60;99.90;;;;;;5003847;28;19937;-86
2023/01/09 08:31:53;;;;;;;;;;;5.60;99.90;;;;;;4999594;28;19976;-85
2023/01/09 08:34:19;;;;;;;;;;;5.60;99.90;;;;;;5002694;28;19975;-85
2023/01/09 08:36:44;;;;;;;;;;;5.60;99.90;;;;;;5024725;28;19925;-85
2023/01/09 08:39:10;;;;;;;;;;;5.60;99.90;;;;;;5025073;28;19929;-85
2023/01/09 08:47:04;;;;;;;;;;;5.70;99.90;;;;;;5003671;28;19929;-86
2023/01/09 08:49:30;;;;;;;;;;;5.70;99.90;;;;;;5018588;28;19933;-86
2023/01/09 08:51:56;;;;;;;;;;;5.70;99.90;;;;;;5000600;28;19930;-86
2023/01/09 08:54:21;;;;;;;;;;;5.70;99.90;;;;;;4981929;28;19936;-86
2023/01/09 08:56:47;;;;;;;;;;;5.70;99.90;;;;;;5004920;28;19933;-85
2023/01/09 08:59:12;;;;;;;;;;;5.80;99.90;;;;;;5002126;28;19926;-85
2023/01/09 09:01:38;;;;;;;;;;;5.80;99.90;;;;;;4983335;28;19926;-85
2023/01/09 09:04:04;;;;;;;;;;;5.80;99.90;;;;;;4987094;28;19930;-85
2023/01/09 09:06:30;;;;;;;;;;;5.80;99.90;;;;;;5004241;28;19930;-85
2023/01/09 09:08:56;;;;;;;;;;;5.90;99.90;;;;;;4996665;28;19925;-85
2023/01/09 09:11:21;;;;;;;;;;;5.90;99.90;;;;;;5002794;28;19931;-85
2023/01/09 09:13:47;;;;;;;;;;;5.90;99.90;;;;;;4979965;28;19936;-85
2023/01/09 09:16:13;;;;;;;;;;;6.00;99.90;;;;;;4986969;28;19981;-85
2023/01/09 09:18:38;;;;;;;;;;;6.00;99.90;;;;;;5007859;28;19925;-86
2023/01/09 09:21:04;;;;;;;;;;;6.00;99.90;;;;;;4980052;28;20021;-86
2023/01/09 09:23:29;;;;;;;;;;;6.10;99.90;;;;;;5000815;28;19926;-85
2023/01/09 09:25:55;;;;;;;;;;;6.10;99.90;;;;;;4999825;28;19925;-85
2023/01/09 09:28:20;;;;;;;;;;;6.10;99.90;;;;;;4997963;28;19951;-86
2023/01/09 09:30:46;;;;;;;;;;;6.20;99.90;;;;;;4997520;28;19933;-85
2023/01/09 09:33:11;;;;;;;;;;;6.20;99.90;;;;;;5015798;28;19930;-85
2023/01/09 09:35:37;;;;;;;;;;;6.20;99.90;;;;;;4999354;28;19926;-85
2023/01/09 09:38:03;;;;;;;;;;;6.20;99.90;;;;;;5017972;28;19993;-85
2023/01/09 09:40:38;;;;;;;;;;;6.20;99.90;;;;;;4986179;28;19965;-85
2023/01/09 09:46:32;;;;;;;;;;;6.30;99.90;;;;;;5018741;28;20020;-86
2023/01/09 09:49:18;;;;;;;;;;;6.30;99.90;;;;;;4988478;28;19936;-85
2023/01/09 09:52:07;;;;;;;;;;;6.30;99.90;;;;;;5020187;28;19956;-85
2023/01/09 09:54:36;;;;;;;;;;;6.30;99.90;;;;;;5020658;28;19955;-86
2023/01/09 09:57:03;;;;;;;;;;;6.40;99.90;;;;;;5040196;28;19929;-85
2023/01/09 09:59:32;;;;;;;;;;;6.40;99.90;;;;;;5036712;28;20008;-85
2023/01/09 10:02:17;;;;;;;;;;;6.40;99.90;;;;;;5039062;28;19988;-85
2023/01/09 10:04:47;;;;;;;;;;;6.50;99.90;;;;;;5038789;28;19925;-86
2023/01/09 10:07:19;;;;;;;;;;;6.50;99.90;;;;;;5038639;28;19929;-86
2023/01/09 10:09:50;;;;;;;;;;;6.50;99.90;;;;;;5001601;28;19933;-85
2023/01/09 10:12:26;;;;;;;;;;;6.50;99.90;;;;;;5024313;28;20522;-86
2023/01/09 10:14:52;;;;;;;;;;;6.50;99.90;;;;;;5024722;28;19925;-86
2023/01/09 10:17:27;;;;;;;;;;;6.50;99.90;;;;;;5028106;28;20391;-86
2023/01/09 10:20:01;;;;;;;;;;;6.50;99.90;;;;;;5022345;28;20020;-86
2023/01/09 10:22:40;;;;;;;;;;;6.50;99.90;;;;;;5021608;28;20330;-86
2023/01/09 10:25:12;;;;;;;;;;;6.50;99.90;;;;;;5035613;28;19936;-86
2023/01/09 10:27:59;;;;;;;;;;;6.50;99.90;;;;;;5003928;28;19925;-86
2023/01/09 10:30:38;;;;;;;;;;;6.60;99.90;;;;;;5020387;28;19925;-85
2023/01/09 10:33:23;;;;;;;;;;;6.60;99.90;;;;;;5008944;28;19925;-86
2023/01/09 10:36:07;;;;;;;;;;;6.60;99.90;;;;;;5039607;28;19931;-84
2023/01/09 10:38:35;;;;;;;;;;;6.60;99.90;;;;;;5011045;28;20348;-85
2023/01/09 10:41:27;;;;;;;;;;;6.60;99.90;;;;;;5036239;28;19929;-85
2023/01/09 10:44:12;;;;;;;;;;;6.60;99.90;;;;;;4982171;28;19976;-85
2023/01/09 10:46:45;;;;;;;;;;;6.60;99.90;;;;;;5021845;28;19933;-85
2023/01/09 10:49:14;;;;;;;;;;;6.70;99.90;;;;;;5015322;28;19936;-86
2023/01/09 10:51:50;;;;;;;;;;;6.70;99.90;;;;;;5003690;28;19932;-86
2023/01/09 10:54:22;;;;;;;;;;;6.70;99.90;;;;;;5031364;28;20453;-86
2023/01/09 10:56:55;;;;;;;;;;;6.70;99.90;;;;;;5038815;28;19985;-86
2023/01/09 10:59:24;;;;;;;;;;;6.70;99.90;;;;;;5019784;28;19929;-86
2023/01/09 11:01:50;;;;;;;;;;;6.70;99.90;;;;;;5041097;28;19947;-86
2023/01/09 11:04:28;;;;;;;;;;;6.70;99.90;;;;;;5019311;28;19965;-85
2023/01/09 11:07:01;;;;;;;;;;;6.80;99.90;;;;;;5016667;28;19940;-85
2023/01/09 11:09:27;;;;;;;;;;;6.80;99.90;;;;;;5018606;28;20004;-86
2023/01/09 11:11:52;;;;;;;;;;;6.80;99.90;;;;;;5020252;28;19969;-86
2023/01/09 11:14:26;;;;;;;;;;;6.70;99.90;;;;;;5018000;28;19932;-86
2023/01/09 11:17:15;;;;;;;;;;;6.80;99.90;;;;;;5019731;28;19964;-86
2023/01/09 11:19:58;;;;;;;;;;;6.80;99.90;;;;;;5032022;28;19939;-86
2023/01/09 11:22:24;;;;;;;;;;;6.80;99.90;;;;;;4996333;28;19982;-85
2023/01/09 11:25:11;;;;;;;;;;;6.80;99.90;;;;;;5034884;28;19937;-85
2023/01/09 11:27:36;;;;;;;;;;;6.80;99.90;;;;;;5019178;28;19980;-85
2023/01/09 11:30:25;;;;;;;;;;;6.90;99.90;;;;;;5020761;28;19956;-85
2023/01/09 11:32:51;;;;;;;;;;;6.90;99.90;;;;;;5019586;28;20022;-85
2023/01/09 11:35:19;;;;;;;;;;;6.80;99.90;;;;;;5004693;28;20287;-85
2023/01/09 11:37:45;;;;;;;;;;;6.90;99.90;;;;;;5037808;28;20012;-85
2023/01/09 11:40:19;;;;;;;;;;;6.90;99.90;;;;;;5004338;28;19933;-84
2023/01/09 11:43:03;;;;;;;;;;;6.90;99.90;;;;;;5020439;28;19925;-85
2023/01/09 11:45:30;;;;;;;;;;;6.90;99.90;;;;;;5036540;28;19925;-85
2023/01/09 11:47:56;;;;;;;;;;;6.90;99.90;;;;;;5020912;28;20372;-84
2023/01/09 11:50:23;;;;;;;;;;;7.00;99.90;;;;;;5019488;28;19925;-84
2023/01/09 11:53:08;;;;;;;;;;;7.00;99.90;;;;;;5037004;28;19948;-84
2023/01/09 11:55:33;;;;;;;;;;;7.10;99.90;;;;;;5019484;28;19925;-83
2023/01/09 11:57:59;;;;;;;;;;;7.10;99.90;;;;;;5035306;28;19940;-85
2023/01/09 12:00:28;;;;;;;;;;;7.20;99.90;;;;;;5020278;28;20465;-84
2023/01/09 12:03:00;;;;;;;;;;;7.20;99.90;;;;;;5019037;28;19937;-84
2023/01/09 12:05:28;;;;;;;;;;;7.20;99.90;;;;;;5021071;28;19929;-84
2023/01/09 12:07:58;;;;;;;;;;;7.30;99.90;;;;;;5037909;28;19932;-84
2023/01/09 12:10:33;;;;;;;;;;;7.30;99.90;;;;;;5019693;28;20043;-84
2023/01/09 12:13:02;;;;;;;;;;;7.30;99.90;;;;;;5019962;28;19932;-84
2023/01/09 12:16:00;;;;;;;;;;;7.30;99.90;;;;;;5019016;28;19936;-84
2023/01/09 12:18:38;;;;;;;;;;;7.30;99.90;;;;;;4998574;28;19929;-84
2023/01/09 12:21:04;;;;;;;;;;;7.30;99.90;;;;;;5020073;28;19925;-84
2023/01/09 12:23:37;;;;;;;;;;;7.30;99.90;;;;;;5019735;28;20021;-84
2023/01/09 12:26:22;;;;;;;;;;;7.40;99.90;;;;;;5020074;28;20019;-84
2023/01/09 12:28:54;;;;;;;;;;;7.30;99.90;;;;;;5017387;28;19925;-84
2023/01/09 12:31:26;;;;;;;;;;;7.30;99.90;;;;;;5020603;28;20329;-84
2023/01/09 12:33:51;;;;;;;;;;;7.30;99.90;;;;;;5019417;28;19971;-84
2023/01/09 12:36:17;;;;;;;;;;;7.30;99.90;;;;;;5034915;28;19941;-84
2023/01/09 12:38:47;;;;;;;;;;;7.40;99.90;;;;;;5019975;28;19925;-84
2023/01/09 12:41:23;;;;;;;;;;;7.40;99.90;;;;;;5035198;28;20442;-84
2023/01/09 12:43:54;;;;;;;;;;;7.40;99.90;;;;;;5020406;28;19925;-84
2023/01/09 12:46:21;;;;;;;;;;;7.50;99.90;;;;;;5036359;28;19935;-84
2023/01/09 12:49:05;;;;;;;;;;;7.50;99.90;;;;;;5037869;28;20441;-84
2023/01/09 12:51:31;;;;;;;;;;;7.50;99.90;;;;;;5035597;28;19929;-84
2023/01/09 12:54:00;;;;;;;;;;;7.60;99.90;;;;;;5037058;28;19925;-84
2023/01/09 12:56:31;;;;;;;;;;;7.50;99.90;;;;;;5002954;28;19948;-84
2023/01/09 12:59:06;;;;;;;;;;;7.60;99.90;;;;;;5036585;28;19964;-84
2023/01/09 13:01:35;;;;;;;;;;;7.60;99.90;;;;;;5019657;28;19925;-87
2023/01/09 13:04:01;;;;;;;;;;;7.60;99.90;;;;;;5019539;28;19963;-86
2023/01/09 13:06:27;;;;;;;;;;;7.60;99.90;;;;;;5036288;28;19925;-86
2023/01/09 13:09:05;;;;;;;;;;;7.60;99.90;;;;;;5037410;28;20008;-85
2023/01/09 13:11:33;;;;;;;;;;;7.60;99.90;;;;;;5036310;28;19987;-85
2023/01/09 13:14:15;;;;;;;;;;;7.60;99.90;;;;;;5041187;28;19925;-85
2023/01/09 13:16:45;;;;;;;;;;;7.60;99.90;;;;;;5022436;28;19956;-85
2023/01/09 13:19:13;;;;;;;;;;;7.60;99.90;;;;;;5040714;28;20402;-85
2023/01/09 13:21:39;;;;;;;;;;;7.60;99.90;;;;;;5036527;28;19929;-85
2023/01/09 13:24:05;;;;;;;;;;;7.60;99.90;;;;;;5036989;28;20019;-85
2023/01/09 13:26:33;;;;;;;;;;;7.60;99.90;;;;;;5036249;28;19972;-85
2023/01/09 13:29:03;;;;;;;;;;;7.60;99.90;;;;;;5017478;28;20264;-85
2023/01/09 13:31:42;;;;;;;;;;;7.60;99.90;;;;;;5023356;28;19932;-85
2023/01/09 13:34:35;;;;;;;;;;;7.60;99.90;;;;;;5020728;28;19933;-85
2023/01/09 13:37:00;;;;;;;;;;;7.60;99.90;;;;;;5003492;28;20513;-85
2023/01/09 13:39:28;;;;;;;;;;;7.60;99.90;;;;;;5003866;28;19947;-84
2023/01/09 13:44:43;;;;;;;;;;;7.70;99.90;;;;;;5039674;28;19925;-85
2023/01/09 13:47:19;;;;;;;;;;;7.80;99.90;;;;;;5022881;28;20268;-84
2023/01/09 13:49:45;;;;;;;;;;;7.80;99.90;;;;;;5039192;28;19929;-84
2023/01/09 13:52:23;;;;;;;;;;;7.80;99.90;;;;;;5022348;28;19979;-84
2023/01/09 13:54:52;;;;;;;;;;;7.80;99.90;;;;;;5021568;28;19925;-84
2023/01/09 13:57:17;;;;;;;;;;;7.90;99.90;;;;;;5022425;28;19929;-84
2023/01/09 13:59:43;;;;;;;;;;;7.90;99.90;;;;;;5021808;28;19952;-84
2023/01/09 14:02:28;;;;;;;;;;;7.90;99.90;;;;;;5021727;28;19996;-84
2023/01/09 14:04:54;;;;;;;;;;;7.90;99.90;;;;;;5022741;28;19962;-84
2023/01/09 14:07:21;;;;;;;;;;;7.90;99.90;;;;;;5038080;28;19925;-84
2023/01/09 14:09:51;;;;;;;;;;;7.90;99.90;;;;;;5025536;28;19929;-84
2023/01/09 14:12:19;;;;;;;;;;;7.90;99.90;;;;;;5010940;28;19936;-84
2023/01/09 14:14:45;;;;;;;;;;;7.90;99.90;;;;;;5021309;28;19992;-84
2023/01/09 14:17:14;;;;;;;;;;;7.90;99.90;;;;;;5022213;28;19940;-84
2023/01/09 14:19:41;;;;;;;;;;;8.00;99.90;;;;;;5020644;28;19925;-84
2023/01/09 14:22:16;;;;;;;;;;;8.10;99.90;;;;;;5040505;28;19925;-84
2023/01/09 14:24:45;;;;;;;;;;;8.10;99.90;;;;;;5020710;28;19992;-84
2023/01/09 14:27:29;;;;;;;;;;;8.10;99.90;;;;;;5022228;28;19929;-84
2023/01/09 14:30:15;;;;;;;;;;;8.20;99.90;;;;;;5038485;28;19925;-84
2023/01/09 14:32:44;;;;;;;;;;;8.20;99.90;;;;;;5038829;28;19929;-84
2023/01/09 14:35:12;;;;;;;;;;;8.20;99.90;;;;;;5040288;28;20015;-84
2023/01/09 14:37:39;;;;;;;;;;;8.20;99.90;;;;;;5038975;28;19936;-84
2023/01/09 14:40:05;;;;;;;;;;;8.20;99.90;;;;;;5021896;28;19943;-84
2023/01/09 14:42:32;;;;;;;;;;;8.20;99.90;;;;;;5020498;28;19929;-84
2023/01/09 14:45:05;;;;;;;;;;;8.10;99.90;;;;;;5038327;28;19929;-84
2023/01/09 14:47:30;;;;;;;;;;;8.00;99.90;;;;;;5020674;28;20011;-84
2023/01/09 14:50:05;;;;;;;;;;;8.00;99.90;;;;;;5020767;28;19971;-83
2023/01/09 14:52:34;;;;;;;;;;;7.90;99.90;;;;;;5022477;28;19933;-84
2023/01/09 14:55:00;;;;;;;;;;;7.90;99.90;;;;;;5007575;28;19925;-84